CheckWX is a tool to help pilots better visualize weather data.  It is not intended as a substitute for an official pre-flight weather briefing.

06:29:34 UTC

KAZO METAR
Kalamazoo / Battle Creek International Airport
Kalamazoo, Michigan, USA
Current

37 mins ago

KAZO 230553Z AUTO 17008G16KT 10SM FEW110 17/10 A2986 RMK AO2 RAB01E37 TSB14E29 SLP109 P0004 60004 T01670100 10222 20161 58018
Observed
Apr-23 @ 05:53 UTC
Wind
  • 170° at 8 KTS
  • Gusting to 16 KTS
Visibility
10 SM
Flight Rules
VFR
Cloud Levels
  • Few at 11,000' AGL
Temperature
17°C / 63°F
Dewpoint
10°C / 50°F
Humidity
64%
Altimeter
29.86" Hg
Pressure
1011.22 hPa
Current Rain
0.04"
Previous

48 mins ago

KAZO 230542Z AUTO 14008KT 10SM SCT090 SCT110 16/10 A2984 RMK AO2 LTG DSNT E RAB01E37 TSB14E29 P0003 T01610100
Observed
Apr-23 @ 05:42 UTC
Wind
  • 140° at 8 KTS
Visibility
10 SM
Flight Rules
VFR
Cloud Levels
  • Scattered at 9,000' AGL
  • Scattered at 11,000' AGL
Temperature
16°C / 61°F
Dewpoint
10°C / 50°F
Humidity
68%
Altimeter
29.84" Hg
Pressure
1010.52 hPa
Current Rain
0.03"
Previous

55 mins ago

KAZO 230535Z AUTO 14010G15KT 10SM VCTS -RA SCT085 BKN110 17/10 A2985 RMK AO2 LTG DSNT E RAB01 TSB14E29 PRESFR P0003 T01670100
Observed
Apr-23 @ 05:35 UTC
Wind
  • 140° at 10 KTS
  • Gusting to 15 KTS
Visibility
10 SM
Flight Rules
VFR
Conditions
Area Thunderstorm, Light Rain
Cloud Levels
  • Scattered at 8,500' AGL
  • Broken at 11,000' AGL
Temperature
17°C / 63°F
Dewpoint
10°C / 50°F
Humidity
64%
Altimeter
29.85" Hg
Pressure
1010.82 hPa
Current Rain
0.03"